Terminal Aerodrome Forecast
Issued by NWS

Home | Current Version | Previous Version | Text Only | Print | Product List | Glossary On
Versions: 1 2 3 4 5 6 7 8 9 10 11 12 13 14 15
646
FTUS44 KLZK 262334
TAFHOT
TAF
KHOT 262334Z 2700/2724 VRB05KT P6SM SCT250
     FM270900 VRB03KT 6SM BR SCT015
      TEMPO 2709/2713 1/2SM FG BKN005
     FM271500 08005KT P6SM FEW050 SCT250=

USA.gov is the U.S. government's official web portal to all federal, state and local government web resources and services.